Galileo — SX2040 — position and weather

sailwx.info

Track history (hours):
 
Tides and Currents Weather Stations Pressure Air Temp Water Temp Dewpoint Dewpoint Depression Visibility Wind Speed Wind Dir Waves Ship Positions

Galileo

Last reported at 2016-May-28 00:33 UTC. Time now 2016-May-28 04:05 UTC.
Position N 37°55' E 023°40'.

Length 40 m; draft 3 m.

Type: Passenger vessel. MMSI: 239299000.

Date/timePositionNaut miles runAvg speedWind from/ knotsBaromVisibWave heightAir tempDewpointWater temp
2016-May-28 00:33N 37°55' E 023°40'1010.0
2016-May-27 23:33N 37°46' E 023°44'1010.2
2016-May-27 22:33N 37°38' E 023°52'1010.0
2016-May-27 21:31N 37°30' E 024°00'43 1.6
2016-May-26 19:14N 37°12' E 024°50'710.4
2016-May-26 18:33N 37°17' E 024°56'1010.3
2016-May-26 17:33N 37°23' E 025°06'1010.0
2016-May-26 16:34N 37°27' E 025°18'2 0.6
2016-May-26 14:06N 37°28' E 025°20'0 0.0
2016-May-26 12:30N 37°28' E 025°20'0 0.0
2016-May-26 11:32N 37°28' E 025°20'0 0.0
2016-May-26 10:29N 37°28' E 025°20'0 0.0
2016-May-26 08:33N 37°28' E 025°20'0 0.0
2016-May-26 07:29N 37°28' E 025°20'0 0.0
2016-May-26 05:22N 37°28' E 025°20'0 0.0
2016-May-26 04:33N 37°28' E 025°20'0 0.0
2016-May-26 03:25N 37°28' E 025°20'0 0.0
2016-May-26 02:33N 37°28' E 025°20'3 0.2
2016-May-25 15:31N 37°26' E 025°17'10 9.9
2016-May-25 14:33N 37°17' E 025°14'1010.3
2016-May-25 13:33N 37°08' E 025°08'1 0.1
2016-May-25 04:31N 37°07' E 025°08'9 8.9
2016-May-25 03:34N 37°10' E 025°18'5 5.1
2016-May-25 02:33N 37°06' E 025°22'0 0.0
2016-May-25 01:34N 37°06' E 025°22'0 0.0
2016-May-25 00:34N 37°06' E 025°22'0 0.0
2016-May-24 23:33N 37°06' E 025°22'0 0.0
2016-May-24 22:33N 37°06' E 025°22'0 0.0
2016-May-24 21:33N 37°06' E 025°22'0 0.0
2016-May-24 20:34N 37°06' E 025°22'0 0.0
2016-May-24 19:34N 37°06' E 025°22'0 0.0
2016-May-24 18:34N 37°06' E 025°22'0 0.0
2016-May-24 17:33N 37°06' E 025°22'0 0.0
2016-May-24 16:33N 37°06' E 025°22'0 0.0
2016-May-24 15:34N 37°06' E 025°22'0 0.0
2016-May-24 14:33N 37°06' E 025°22'0 0.0
2016-May-24 13:34N 37°06' E 025°22'0 0.0
2016-May-24 12:34N 37°06' E 025°22'5 5.1
2016-May-24 11:33N 37°10' E 025°26'10 8.6
2016-May-24 10:24N 37°10' E 025°39'32 1.0
2016-May-23 00:33N 37°07' E 024°58'10 9.9
2016-May-22 23:34N 37°17' E 024°57'9 0.4
2016-May-22 03:17N 37°26' E 024°57'8 7.8
2016-May-22 02:12N 37°31' E 024°49'3710.0
2016-May-21 22:26N 37°31' E 024°02'9 9.8
2016-May-21 21:33N 37°32' E 023°51'1010.0
2016-May-21 20:33N 37°33' E 023°38'9 9.6
2016-May-21 19:33N 37°32' E 023°26'2 2.4
2016-May-21 18:33N 37°30' E 023°27'0 0.0
2016-May-21 17:33N 37°30' E 023°27'5 4.7
2016-May-21 16:33N 37°35' E 023°28'1010.1
2016-May-21 15:33N 37°44' E 023°34'9 9.0
2016-May-21 14:33N 37°52' E 023°38'4 3.8
2016-May-21 13:33N 37°56' E 023°39'0 0.0
2016-May-21 12:33N 37°56' E 023°39'0 0.0
2016-May-21 11:33N 37°56' E 023°39'0 0.0
2016-May-21 10:33N 37°56' E 023°39'0 0.0
2016-May-21 09:34N 37°56' E 023°39'0 0.0
2016-May-21 08:33N 37°56' E 023°39'0 0.0
2016-May-21 07:33N 37°56' E 023°39'0 0.0
2016-May-21 06:33N 37°56' E 023°39'0 0.0
2016-May-21 05:33N 37°56' E 023°39'0 0.0
2016-May-21 04:33N 37°56' E 023°39'0 0.0
2016-May-21 03:33N 37°56' E 023°39'0 0.0
2016-May-21 02:33N 37°56' E 023°39'0 0.0
2016-May-21 01:33N 37°56' E 023°39'0 0.0
2016-May-21 00:33N 37°56' E 023°39'0 0.0
2016-May-20 23:33N 37°56' E 023°39'0 0.0
2016-May-20 22:33N 37°56' E 023°39'0 0.0
2016-May-20 21:34N 37°56' E 023°39'0 0.0
2016-May-20 20:33N 37°56' E 023°39'0 0.0
2016-May-20 19:33N 37°56' E 023°39'0 0.0
2016-May-20 18:33N 37°56' E 023°39'0 0.0
2016-May-20 17:33N 37°56' E 023°39'0 0.0
2016-May-20 16:33N 37°56' E 023°39'2 2.1
2016-May-20 15:34N 37°54' E 023°40'9 9.3
2016-May-20 14:33N 37°46' E 023°45'11 9.9
2016-May-20 13:27N 37°39' E 023°56'50 4.8
2016-May-20 03:08N 37°30' E 024°57'6 0.3
2016-May-19 06:04N 37°26' E 025°04'510.1
2016-May-19 05:33N 37°27' E 025°10'8 7.7
2016-May-19 04:33N 37°28' E 025°20'0 0.0
2016-May-18 19:33N 37°28' E 025°20'0 0.0
2016-May-18 18:33N 37°28' E 025°20'0 0.0
2016-May-18 16:30N 37°28' E 025°20'0 0.0
2016-May-18 15:33N 37°28' E 025°20'0 0.0
2016-May-18 14:32N 37°28' E 025°20'0 0.0
2016-May-18 13:33N 37°28' E 025°20'0 0.0
2016-May-18 12:26N 37°28' E 025°20'0 0.0
2016-May-18 11:31N 37°28' E 025°20'0 0.5
2016-May-18 10:34N 37°28' E 025°19'5 5.3
2016-May-18 09:33N 37°23' E 025°16'0 0.0
2016-May-18 08:33N 37°23' E 025°16'0 0.0
2016-May-18 07:33N 37°23' E 025°16'0 0.0
2016-May-18 06:33N 37°23' E 025°16'0 0.0
2016-May-18 05:33N 37°23' E 025°16'4 3.9
2016-May-18 04:33N 37°20' E 025°14'12 9.9
2016-May-18 03:18N 37°08' E 025°08'  
Track history (hours):
 
Tides and Currents Weather Stations Pressure Air Temp Water Temp Dewpoint Dewpoint Depression Visibility Wind Speed Wind Dir Waves Ship Positions

Galileo

Last reported at 2016-May-28 00:33 UTC. Time now 2016-May-28 04:05 UTC.
Position N 37°55' E 023°40'.

Length 40 m; draft 3 m.

Type: Passenger vessel. MMSI: 239299000.

Date/timePositionNaut miles runAvg speedWind from/ knotsBaromVisibWave heightAir tempDewpointWater temp
2016-May-28 00:33N 37°55' E 023°40'1010.0
2016-May-27 23:33N 37°46' E 023°44'1010.2
2016-May-27 22:33N 37°38' E 023°52'1010.0
2016-May-27 21:31N 37°30' E 024°00'43 1.6
2016-May-26 19:14N 37°12' E 024°50'710.4
2016-May-26 18:33N 37°17' E 024°56'1010.3
2016-May-26 17:33N 37°23' E 025°06'1010.0
2016-May-26 16:34N 37°27' E 025°18'2 0.6
2016-May-26 14:06N 37°28' E 025°20'0 0.0
2016-May-26 12:30N 37°28' E 025°20'0 0.0
2016-May-26 11:32N 37°28' E 025°20'0 0.0
2016-May-26 10:29N 37°28' E 025°20'0 0.0
2016-May-26 08:33N 37°28' E 025°20'0 0.0
2016-May-26 07:29N 37°28' E 025°20'0 0.0
2016-May-26 05:22N 37°28' E 025°20'0 0.0
2016-May-26 04:33N 37°28' E 025°20'0 0.0
2016-May-26 03:25N 37°28' E 025°20'0 0.0
2016-May-26 02:33N 37°28' E 025°20'3 0.2
2016-May-25 15:31N 37°26' E 025°17'10 9.9
2016-May-25 14:33N 37°17' E 025°14'1010.3
2016-May-25 13:33N 37°08' E 025°08'1 0.1
2016-May-25 04:31N 37°07' E 025°08'9 8.9
2016-May-25 03:34N 37°10' E 025°18'5 5.1
2016-May-25 02:33N 37°06' E 025°22'0 0.0
2016-May-25 01:34N 37°06' E 025°22'0 0.0
2016-May-25 00:34N 37°06' E 025°22'0 0.0
2016-May-24 23:33N 37°06' E 025°22'0 0.0
2016-May-24 22:33N 37°06' E 025°22'0 0.0
2016-May-24 21:33N 37°06' E 025°22'0 0.0
2016-May-24 20:34N 37°06' E 025°22'0 0.0
2016-May-24 19:34N 37°06' E 025°22'0 0.0
2016-May-24 18:34N 37°06' E 025°22'0 0.0
2016-May-24 17:33N 37°06' E 025°22'0 0.0
2016-May-24 16:33N 37°06' E 025°22'0 0.0
2016-May-24 15:34N 37°06' E 025°22'0 0.0
2016-May-24 14:33N 37°06' E 025°22'0 0.0
2016-May-24 13:34N 37°06' E 025°22'0 0.0
2016-May-24 12:34N 37°06' E 025°22'5 5.1
2016-May-24 11:33N 37°10' E 025°26'10 8.6
2016-May-24 10:24N 37°10' E 025°39'32 1.0
2016-May-23 00:33N 37°07' E 024°58'10 9.9
2016-May-22 23:34N 37°17' E 024°57'9 0.4
2016-May-22 03:17N 37°26' E 024°57'8 7.8
2016-May-22 02:12N 37°31' E 024°49'3710.0
2016-May-21 22:26N 37°31' E 024°02'9 9.8
2016-May-21 21:33N 37°32' E 023°51'1010.0
2016-May-21 20:33N 37°33' E 023°38'9 9.6
2016-May-21 19:33N 37°32' E 023°26'2 2.4
2016-May-21 18:33N 37°30' E 023°27'0 0.0
2016-May-21 17:33N 37°30' E 023°27'5 4.7
2016-May-21 16:33N 37°35' E 023°28'1010.1
2016-May-21 15:33N 37°44' E 023°34'9 9.0
2016-May-21 14:33N 37°52' E 023°38'4 3.8
2016-May-21 13:33N 37°56' E 023°39'0 0.0
2016-May-21 12:33N 37°56' E 023°39'0 0.0
2016-May-21 11:33N 37°56' E 023°39'0 0.0
2016-May-21 10:33N 37°56' E 023°39'0 0.0
2016-May-21 09:34N 37°56' E 023°39'0 0.0
2016-May-21 08:33N 37°56' E 023°39'0 0.0
2016-May-21 07:33N 37°56' E 023°39'0 0.0
2016-May-21 06:33N 37°56' E 023°39'0 0.0
2016-May-21 05:33N 37°56' E 023°39'0 0.0
2016-May-21 04:33N 37°56' E 023°39'0 0.0
2016-May-21 03:33N 37°56' E 023°39'0 0.0
2016-May-21 02:33N 37°56' E 023°39'0 0.0
2016-May-21 01:33N 37°56' E 023°39'0 0.0
2016-May-21 00:33N 37°56' E 023°39'0 0.0
2016-May-20 23:33N 37°56' E 023°39'0 0.0
2016-May-20 22:33N 37°56' E 023°39'0 0.0
2016-May-20 21:34N 37°56' E 023°39'0 0.0
2016-May-20 20:33N 37°56' E 023°39'0 0.0
2016-May-20 19:33N 37°56' E 023°39'0 0.0
2016-May-20 18:33N 37°56' E 023°39'0 0.0
2016-May-20 17:33N 37°56' E 023°39'0 0.0
2016-May-20 16:33N 37°56' E 023°39'2 2.1
2016-May-20 15:34N 37°54' E 023°40'9 9.3
2016-May-20 14:33N 37°46' E 023°45'11 9.9
2016-May-20 13:27N 37°39' E 023°56'50 4.8
2016-May-20 03:08N 37°30' E 024°57'6 0.3
2016-May-19 06:04N 37°26' E 025°04'510.1
2016-May-19 05:33N 37°27' E 025°10'8 7.7
2016-May-19 04:33N 37°28' E 025°20'0 0.0
2016-May-18 19:33N 37°28' E 025°20'0 0.0
2016-May-18 18:33N 37°28' E 025°20'0 0.0
2016-May-18 16:30N 37°28' E 025°20'0 0.0
2016-May-18 15:33N 37°28' E 025°20'0 0.0
2016-May-18 14:32N 37°28' E 025°20'0 0.0
2016-May-18 13:33N 37°28' E 025°20'0 0.0
2016-May-18 12:26N 37°28' E 025°20'0 0.0
2016-May-18 11:31N 37°28' E 025°20'0 0.5
2016-May-18 10:34N 37°28' E 025°19'5 5.3
2016-May-18 09:33N 37°23' E 025°16'0 0.0
2016-May-18 08:33N 37°23' E 025°16'0 0.0
2016-May-18 07:33N 37°23' E 025°16'0 0.0
2016-May-18 06:33N 37°23' E 025°16'0 0.0
2016-May-18 05:33N 37°23' E 025°16'4 3.9
2016-May-18 04:33N 37°20' E 025°14'12 9.9
2016-May-18 03:18N 37°08' E 025°08'  

Dump ship's entire track history